Time;durP1;ratioP1;P1;durP2;ratioP2;P2;SDS_P1;SDS_P2;PMS_P1;PMS_P2;Temp;Humidity;BMP_temperature;BMP_pressure;BME280_temperature;BME280_humidity;BME280_pressure;Samples;Min_cycle;Max_cycle;Signal;HPM_P1;HPM_P2
2021/12/09 00:02:20;;;;;;;40.63;18.83;;;3.70;56.60;;;1.74;64.22;100247.44;8283756;28;20056;-82
2021/12/09 00:06:44;;;;;;;38.38;17.17;;;3.90;56.90;;;1.74;64.04;100250.03;8314952;28;20056;-84
2021/12/09 00:11:07;;;;;;;38.05;17.55;;;3.60;56.70;;;1.72;64.29;100251.78;8306160;28;20052;-81
2021/12/09 00:15:29;;;;;;;42.17;20.30;;;3.60;56.80;;;1.74;64.50;100232.00;8279078;28;20141;-82
2021/12/09 00:19:51;;;;;;;34.83;17.10;;;3.60;56.70;;;1.75;64.43;100231.09;8304662;28;20586;-82
2021/12/09 00:24:55;;;;;;;36.38;16.17;;;3.60;56.90;;;1.78;64.21;100227.59;8316877;28;20132;-83
2021/12/09 00:29:17;;;;;;;31.10;14.57;;;3.60;56.90;;;1.78;64.30;100217.31;8314079;28;20046;-82
2021/12/09 00:33:43;;;;;;;39.67;16.98;;;3.60;56.90;;;1.76;64.22;100217.38;8313775;28;20132;-82
2021/12/09 00:38:08;;;;;;;;;;;3.60;56.90;;;1.69;64.41;100212.44;8297126;28;20132;-82
2021/12/09 00:42:30;;;;;;;36.72;15.18;;;3.60;56.90;;;1.65;64.41;100205.69;8283052;28;20011;-83
2021/12/09 00:46:54;;;;;;;38.30;17.60;;;3.60;56.90;;;1.65;64.19;100216.81;8283310;28;20124;-82
2021/12/09 00:51:16;;;;;;;33.17;15.47;;;3.40;56.70;;;1.64;64.44;100209.97;8317756;28;20136;-82
2021/12/09 00:55:38;;;;;;;37.58;16.60;;;3.50;56.90;;;1.65;64.38;100211.69;8311483;28;20132;-82
2021/12/09 01:00:04;;;;;;;36.65;17.77;;;3.50;57.00;;;1.63;64.49;100203.16;8312632;28;20136;-82
2021/12/09 01:04:26;;;;;;;;;;;3.50;56.90;;;1.65;64.38;100205.69;8301454;28;20152;-81
2021/12/09 01:08:47;;;;;;;35.67;15.02;;;3.50;57.00;;;1.60;64.12;100200.66;8320189;28;20321;-82
2021/12/09 01:13:10;;;;;;;30.77;14.50;;;3.50;56.90;;;1.57;64.12;100211.03;8293857;28;20621;-82
2021/12/09 01:17:32;;;;;;;33.55;15.88;;;3.50;57.00;;;1.52;63.90;100200.84;8306176;28;20443;-82
2021/12/09 01:21:54;;;;;;;29.02;15.02;;;3.50;57.00;;;1.51;64.37;100200.88;8301688;28;20209;-81
2021/12/09 01:26:16;;;;;;;43.47;18.67;;;3.40;56.90;;;1.61;64.30;100215.19;8302511;28;20081;-82
2021/12/09 01:30:38;;;;;;;41.75;18.27;;;3.40;56.90;;;1.57;64.25;100216.19;8318347;28;20140;-82
2021/12/09 01:34:59;;;;;;;39.10;17.45;;;3.50;56.90;;;1.51;64.16;100222.34;8292608;28;20123;-82
2021/12/09 01:39:22;;;;;;;33.78;15.52;;;3.40;56.90;;;1.60;63.99;100230.69;8280029;28;20124;-81
2021/12/09 01:43:47;;;;;;;44.75;19.10;;;3.40;57.00;;;1.45;64.21;100230.19;8297214;28;20140;-82
2021/12/09 01:48:08;;;;;;;34.63;17.10;;;3.50;57.00;;;1.56;64.18;100247.94;8300848;28;20045;-82
2021/12/09 01:52:30;;;;;;;38.80;16.65;;;3.40;57.00;;;1.53;64.54;100235.16;8288079;28;20514;-82
2021/12/09 01:56:53;;;;;;;33.80;14.95;;;3.40;57.00;;;1.59;64.20;100240.13;8320637;28;20124;-82
2021/12/09 02:01:16;;;;;;;36.65;16.65;;;3.40;57.40;;;1.55;64.38;100230.81;8311604;28;20700;-82
2021/12/09 02:05:41;;;;;;;32.22;16.50;;;3.50;57.10;;;1.55;64.28;100231.66;8316106;28;20136;-82
2021/12/09 02:10:10;;;;;;;32.72;15.70;;;3.40;57.00;;;1.54;64.05;100239.44;8304079;28;20132;-82
2021/12/09 02:14:32;;;;;;;38.40;16.00;;;3.40;57.00;;;1.50;64.24;100230.91;8295745;28;20132;-80
2021/12/09 02:18:54;;;;;;;34.42;16.23;;;3.40;57.00;;;1.49;64.13;100216.38;8298569;28;20576;-82
2021/12/09 02:23:17;;;;;;;49.42;20.58;;;3.40;57.00;;;1.51;64.21;100219.75;8295924;28;20136;-81
2021/12/09 02:27:40;;;;;;;46.47;18.92;;;3.40;57.00;;;1.54;64.50;100229.13;8284990;28;20056;-83
2021/12/09 02:32:02;;;;;;;38.28;16.60;;;3.40;57.00;;;1.54;64.17;100229.97;8304472;28;20130;-81
2021/12/09 02:36:24;;;;;;;42.88;20.33;;;3.40;57.00;;;1.61;64.13;100227.22;8283559;28;20147;-82
2021/12/09 02:40:48;;;;;;;37.78;17.73;;;3.40;57.00;;;1.56;64.32;100224.78;8304741;28;20124;-81
2021/12/09 02:45:11;;;;;;;36.50;16.33;;;3.40;57.00;;;1.53;64.01;100223.13;8286409;28;20124;-82
2021/12/09 02:49:33;;;;;;;36.63;18.25;;;3.40;57.00;;;1.50;64.13;100225.78;8287145;28;20512;-81
2021/12/09 02:53:55;;;;;;;35.30;16.38;;;3.40;57.00;;;1.52;64.40;100233.47;8273185;28;20592;-81
2021/12/09 02:58:17;;;;;;;38.25;17.55;;;3.40;57.10;;;1.51;64.29;100214.63;8308668;28;20144;-81
2021/12/09 03:02:43;;;;;;;39.92;18.50;;;3.40;57.10;;;1.47;64.53;100210.41;8274466;28;20049;-83
2021/12/09 03:07:35;;;;;;;34.60;17.92;;;3.40;57.00;;;1.54;64.18;100224.00;8299047;28;20092;-82
2021/12/09 03:12:03;;;;;;;32.72;15.88;;;3.30;57.00;;;1.47;64.14;100217.31;8301888;28;20136;-82
2021/12/09 03:16:25;;;;;;;33.60;16.83;;;3.30;57.00;;;1.52;64.48;100225.75;8289840;28;20128;-82
2021/12/09 03:20:47;;;;;;;38.28;18.30;;;3.40;57.00;;;1.50;64.47;100232.66;8301588;28;20453;-83
2021/12/09 03:25:12;;;;;;;44.78;19.52;;;3.30;57.00;;;1.50;64.16;100230.09;8294853;28;20048;-82
2021/12/09 03:29:35;;;;;;;40.83;17.60;;;3.30;57.00;;;1.46;64.40;100215.59;8307400;28;20056;-82
2021/12/09 03:33:57;;;;;;;37.65;17.73;;;3.40;57.10;;;1.41;64.22;100202.03;8287288;28;20140;-80
2021/12/09 03:38:19;;;;;;;42.30;18.23;;;3.30;57.00;;;1.39;64.49;100198.66;8292009;28;20243;-81
2021/12/09 03:42:42;;;;;;;39.35;18.15;;;3.30;57.00;;;1.40;64.30;100215.75;8295437;28;20128;-81
2021/12/09 03:47:08;;;;;;;42.05;20.15;;;3.30;57.00;;;1.43;64.33;100231.97;8286639;28;20037;-81
2021/12/09 03:51:30;;;;;;;46.28;21.48;;;3.30;56.90;;;1.28;64.16;100202.34;8297897;28;20136;-82
2021/12/09 03:55:52;;;;;;;40.65;18.98;;;3.30;56.90;;;1.32;64.28;100203.09;8291054;28;20132;-82
2021/12/09 04:00:14;;;;;;;35.70;17.55;;;3.30;57.00;;;1.33;64.33;100202.22;8292093;28;20140;-82
2021/12/09 04:04:37;;;;;;;41.90;19.70;;;3.20;57.00;;;1.33;64.08;100209.94;8300756;28;20132;-82
2021/12/09 04:08:59;;;;;;;39.45;18.95;;;3.20;57.40;;;1.37;64.50;100214.09;8279705;28;20128;-83
2021/12/09 04:13:21;;;;;;;31.25;16.20;;;3.50;57.20;;;1.40;64.33;100221.75;8305166;28;20124;-82
2021/12/09 04:17:42;;;;;;;36.30;18.00;;;3.20;57.10;;;1.40;64.15;100233.78;8300117;28;20128;-81
2021/12/09 04:22:04;;;;;;;38.38;18.45;;;3.30;57.10;;;1.42;63.85;100221.72;8301021;28;20141;-81
2021/12/09 04:26:26;;;;;;;34.38;16.50;;;3.30;57.10;;;1.43;64.34;100218.25;8295396;28;20049;-82
2021/12/09 04:30:48;;;;;;;36.65;17.35;;;3.20;57.10;;;1.40;64.36;100216.59;8287983;28;20125;-81
2021/12/09 04:35:10;;;;;;;35.42;17.17;;;3.30;57.10;;;1.38;64.34;100223.53;8293890;28;20116;-81
2021/12/09 04:39:32;;;;;;;37.53;16.30;;;3.30;57.10;;;1.43;64.40;100238.84;8282800;28;20133;-82
2021/12/09 04:43:54;;;;;;;37.28;15.98;;;3.30;57.10;;;1.46;64.38;100239.63;8291534;28;20140;-82
2021/12/09 04:48:16;;;;;;;32.75;14.48;;;3.30;57.10;;;1.42;64.21;100238.00;8298468;23;20072;-86
2021/12/09 04:52:39;;;;;;;40.33;16.90;;;3.30;57.20;;;1.40;64.15;100231.19;8299884;28;20128;-85
2021/12/09 04:57:00;;;;;;;36.50;16.63;;;3.30;57.10;;;1.48;64.27;100239.56;8276890;28;20116;-86
2021/12/09 05:01:23;;;;;;;34.75;17.33;;;3.30;57.10;;;1.40;64.36;100237.19;8252520;28;20048;-85
2021/12/09 05:05:49;;;;;;;37.08;15.75;;;3.40;57.10;;;1.41;64.53;100238.06;8248963;28;20130;-87
2021/12/09 05:10:12;;;;;;;35.53;16.10;;;3.40;57.20;;;1.44;64.05;100258.53;8249703;28;20043;-87
2021/12/09 05:14:34;;;;;;;33.00;15.10;;;3.30;57.10;;;1.49;64.47;100274.72;8252960;28;20048;-88
2021/12/09 05:18:59;;;;;;;37.53;15.43;;;3.40;57.20;;;1.48;64.32;100268.69;8267597;28;20137;-87
2021/12/09 05:23:22;;;;;;;37.47;16.40;;;3.20;57.10;;;1.38;64.33;100246.69;8267114;28;20136;-86
2021/12/09 05:27:44;;;;;;;27.35;14.18;;;3.40;57.10;;;1.51;64.46;100284.09;8253539;28;20042;-86
2021/12/09 05:32:13;;;;;;;33.63;15.27;;;3.40;57.50;;;1.49;64.29;100279.88;8248557;28;20038;-86
2021/12/09 05:36:35;;;;;;;31.77;15.40;;;3.40;57.20;;;1.47;64.44;100263.59;8257360;28;20036;-85
2021/12/09 05:40:57;;;;;;;31.95;16.48;;;3.40;57.20;;;1.53;64.13;100284.03;8254777;28;20049;-84
2021/12/09 05:45:18;;;;;;;34.00;15.98;;;3.40;57.20;;;1.54;64.12;100272.88;8287188;28;20513;-83
2021/12/09 05:49:47;;;;;;;31.52;14.25;;;3.40;57.20;;;1.53;64.19;100274.56;8287418;28;20053;-86
2021/12/09 05:54:09;;;;;;;33.22;15.50;;;3.40;57.20;;;1.53;64.19;100254.00;8273267;28;20383;-84
2021/12/09 05:58:31;;;;;;;43.58;19.33;;;3.40;57.20;;;1.46;64.44;100237.03;8279733;28;20597;-85
2021/12/09 06:02:53;;;;;;;37.58;16.48;;;3.40;57.10;;;1.48;64.22;100266.13;8276682;28;20042;-86
2021/12/09 06:07:15;;;;;;;41.20;17.85;;;3.40;57.20;;;1.51;64.22;100252.34;8285518;28;20055;-86
2021/12/09 06:11:41;;;;;;;37.72;16.58;;;3.40;57.20;;;1.48;64.28;100255.84;8296136;28;20045;-85
2021/12/09 06:16:06;;;;;;;35.65;15.85;;;3.40;57.20;;;1.53;64.09;100269.44;8282410;28;20136;-86
2021/12/09 06:20:28;;;;;;;43.10;20.17;;;3.40;57.20;;;1.48;64.19;100273.84;8307348;28;20136;-85
2021/12/09 06:24:50;;;;;;;39.15;17.17;;;3.40;57.20;;;1.55;64.48;100262.53;8273088;28;20478;-84
2021/12/09 06:29:12;;;;;;;43.40;18.20;;;3.40;57.20;;;1.57;64.21;100233.31;8292723;28;20046;-84
2021/12/09 06:33:33;;;;;;;36.17;17.48;;;3.50;57.20;;;1.53;64.45;100240.28;8310657;28;20393;-85
2021/12/09 06:37:56;;;;;;;41.85;18.00;;;3.40;57.20;;;1.46;64.16;100237.03;8286900;28;20040;-85
2021/12/09 06:42:18;;;;;;;40.42;16.38;;;3.40;57.20;;;1.60;64.31;100231.53;8304725;28;20136;-88
2021/12/09 06:46:40;;;;;;;34.83;16.23;;;3.40;57.30;;;1.64;64.06;100265.75;8284928;28;20156;-87
2021/12/09 06:51:02;;;;;;;40.53;18.02;;;3.40;57.20;;;1.64;64.16;100268.31;8292665;28;20132;-93
2021/12/09 06:55:24;;;;;;;38.05;17.10;;;3.40;57.20;;;1.53;64.16;100248.84;8276348;28;20409;-81
2021/12/09 06:59:45;;;;;;;34.75;16.23;;;3.50;57.30;;;1.68;64.19;100265.63;8300178;28;20136;-81
2021/12/09 07:04:08;;;;;;;32.22;15.05;;;3.50;57.30;;;1.61;64.62;100251.22;8311355;28;20511;-82
2021/12/09 07:08:30;;;;;;;34.47;14.75;;;3.50;57.30;;;1.64;64.47;100255.44;8300265;28;20037;-88
2021/12/09 07:12:53;;;;;;;30.25;14.25;;;3.50;57.30;;;1.60;64.13;100246.13;8267174;28;20124;-81
2021/12/09 07:17:16;;;;;;;35.42;15.52;;;3.60;57.40;;;1.68;64.17;100257.06;8323477;28;20606;-84
2021/12/09 07:21:38;;;;;;;38.22;16.20;;;3.60;57.30;;;1.63;64.09;100270.06;8286729;28;20137;-85
2021/12/09 07:25:59;;;;;;;35.58;16.48;;;3.60;57.30;;;1.65;64.18;100259.72;8281920;28;20490;-84
2021/12/09 07:30:26;;;;;;;36.97;17.45;;;3.60;57.30;;;1.65;64.15;100272.59;8282440;28;20056;-83
2021/12/09 07:34:48;;;;;;;35.00;16.80;;;3.60;57.30;;;1.72;64.19;100305.00;8286842;28;20132;-86
2021/12/09 07:39:10;;;;;;;34.55;16.90;;;3.60;57.30;;;1.59;64.39;100260.72;8285549;28;20132;-84
2021/12/09 07:43:31;;;;;;;33.03;17.15;;;3.50;57.30;;;1.66;64.31;100262.25;8269295;28;20552;-84
2021/12/09 07:47:54;;;;;;;30.40;14.75;;;3.60;57.40;;;1.71;64.10;100303.31;8302483;28;20075;-84
2021/12/09 07:52:15;;;;;;;32.25;14.45;;;3.60;57.40;;;1.59;64.46;100301.88;8264968;28;20582;-83
2021/12/09 07:56:37;;;;;;;33.58;17.00;;;3.60;57.50;;;1.68;64.21;100314.53;8280247;28;20136;-82
2021/12/09 08:00:59;;;;;;;39.72;18.90;;;3.50;57.40;;;1.69;64.33;100323.09;8286897;28;20391;-83
2021/12/09 08:05:23;;;;;;;34.05;16.25;;;3.60;57.50;;;1.58;64.41;100333.66;8286580;28;20140;-83
2021/12/09 08:09:45;;;;;;;41.97;18.15;;;3.40;57.40;;;1.62;64.37;100324.13;8290068;28;20049;-83
2021/12/09 08:14:10;;;;;;;37.60;17.92;;;3.50;57.50;;;1.59;64.25;100329.34;8263725;28;20125;-82
2021/12/09 08:18:43;;;;;;;37.13;16.35;;;3.50;57.50;;;1.60;64.47;100298.44;8276221;28;20045;-84
2021/12/09 08:23:05;;;;;;;31.10;15.10;;;3.50;57.60;;;1.67;64.61;100310.25;8293067;28;20311;-83
2021/12/09 08:27:28;;;;;;;31.23;14.73;;;3.50;57.60;;;1.63;64.27;100295.78;8287662;28;20060;-82
2021/12/09 08:31:50;;;;;;;32.03;15.82;;;3.50;57.70;;;1.69;64.64;100295.63;8263888;28;20038;-82
2021/12/09 08:36:12;;;;;;;42.30;18.17;;;3.60;57.70;;;1.63;64.49;100290.63;8282296;28;20394;-84
2021/12/09 08:40:34;;;;;;;31.75;16.30;;;3.50;57.60;;;1.62;64.61;100286.38;8268446;28;20049;-84
2021/12/09 08:44:56;;;;;;;32.03;15.15;;;3.50;57.70;;;1.64;64.66;100294.06;8284105;28;20049;-83
2021/12/09 08:49:18;;;;;;;42.95;18.73;;;3.50;58.00;;;1.60;64.42;100279.59;8264151;28;20045;-83
2021/12/09 08:53:40;;;;;;;32.90;16.35;;;3.50;57.70;;;1.64;64.50;100276.03;8258393;28;20117;-83
2021/12/09 08:58:02;;;;;;;35.13;17.48;;;3.50;57.80;;;1.64;64.35;100279.44;8269195;28;20471;-82
2021/12/09 09:02:25;;;;;;;30.60;15.50;;;3.50;57.70;;;1.65;64.65;100283.72;8283623;28;20141;-88
2021/12/09 09:06:58;;;;;;;31.00;15.48;;;3.50;57.70;;;1.66;64.38;100275.13;8283917;28;20517;-84
2021/12/09 09:11:19;;;;;;;32.53;16.42;;;3.50;57.80;;;1.64;64.55;100276.88;8286950;28;20132;-87
2021/12/09 09:15:42;;;;;;;32.75;15.55;;;3.50;57.70;;;1.63;64.60;100275.19;8301390;28;20104;-88
2021/12/09 09:20:07;;;;;;;41.80;20.13;;;3.60;57.80;;;1.69;64.51;100285.31;8271634;28;20145;-88
2021/12/09 09:24:29;;;;;;;35.03;16.93;;;3.50;57.80;;;1.69;64.51;100300.78;8305599;28;20170;-90
2021/12/09 09:28:50;;;;;;;32.80;17.25;;;3.60;57.90;;;1.67;64.56;100302.53;8283941;28;20050;-86
2021/12/09 09:33:15;;;;;;;31.58;15.13;;;3.50;57.90;;;1.69;64.76;100312.81;8273017;28;20569;-86
2021/12/09 09:37:38;;;;;;;33.50;17.17;;;3.50;57.90;;;1.68;64.38;100280.25;8257704;28;20268;-85
2021/12/09 09:42:20;;;;;;;29.23;14.70;;;3.60;57.90;;;1.62;64.31;100299.25;8271925;28;20136;-85
2021/12/09 09:46:43;;;;;;;37.70;18.33;;;3.60;58.00;;;1.70;64.61;100288.75;8290243;28;20124;-85
2021/12/09 09:51:07;;;;;;;30.63;15.57;;;3.60;57.90;;;1.72;64.44;100287.81;8277863;28;20128;-85
2021/12/09 09:55:28;;;;;;;29.73;15.45;;;3.60;57.90;;;1.76;64.45;100291.19;8303059;28;20520;-86
2021/12/09 09:59:50;;;;;;;30.60;15.48;;;3.60;57.90;;;1.79;64.47;100280.78;8275572;28;20141;-85
2021/12/09 10:04:14;;;;;;;27.63;14.70;;;3.60;57.90;;;1.83;64.69;100297.00;8282627;28;20129;-87
2021/12/09 10:08:36;;;;;;;31.42;15.93;;;3.70;58.00;;;1.82;64.62;100285.03;8285321;28;20397;-85
2021/12/09 10:13:03;;;;;;;35.78;16.58;;;3.70;58.00;;;1.81;64.76;100286.75;8287458;28;20546;-85
2021/12/09 10:17:27;;;;;;;33.58;16.80;;;3.70;57.90;;;1.82;64.49;100277.31;8265155;28;20301;-82
2021/12/09 10:22:02;;;;;;;30.00;15.32;;;3.60;57.90;;;1.88;64.86;100300.28;8267978;28;20042;-84
2021/12/09 10:26:31;;;;;;;28.77;14.38;;;3.70;57.90;;;1.87;64.77;100309.75;8270109;28;20037;-85
2021/12/09 10:31:14;;;;;;;34.67;17.33;;;3.70;57.90;;;1.86;64.79;100309.78;8270059;28;20057;-85
2021/12/09 10:35:41;;;;;;;29.30;14.60;;;3.70;57.90;;;1.76;65.10;100286.88;8283438;28;20050;-86
2021/12/09 10:40:16;;;;;;;31.52;15.68;;;3.70;57.90;;;1.93;64.61;100295.88;8278499;28;20042;-85
2021/12/09 10:44:52;;;;;;;28.37;15.17;;;3.70;58.00;;;1.92;64.75;100292.47;8285012;28;20137;-87
2021/12/09 10:49:15;;;;;;;33.20;14.90;;;3.80;58.10;;;1.96;64.67;100306.09;8268342;23;20359;-83
2021/12/09 10:53:48;;;;;;;28.85;14.43;;;3.80;58.00;;;2.03;64.98;100296.50;8226107;28;20072;-83
2021/12/09 10:58:13;;;;;;;33.10;15.45;;;3.80;58.10;;;2.02;64.71;100298.19;8231116;28;20044;-83
2021/12/09 11:02:34;;;;;;;25.42;14.23;;;3.90;58.10;;;2.02;64.53;100275.00;8252888;28;20045;-83
2021/12/09 11:06:56;;;;;;;28.80;15.48;;;3.90;58.00;;;2.05;64.81;100259.47;8277189;28;20125;-83
2021/12/09 11:11:33;;;;;;;30.90;17.15;;;3.90;58.00;;;2.09;64.85;100271.41;8264926;28;20124;-83
2021/12/09 11:15:57;;;;;;;30.42;15.27;;;3.90;58.00;;;2.05;64.97;100261.22;8261066;28;20046;-83
2021/12/09 11:20:44;;;;;;;31.05;14.85;;;3.90;57.90;;;2.02;64.66;100251.00;8271258;28;20056;-83
2021/12/09 11:25:32;;;;;;;26.25;13.30;;;4.00;58.00;;;2.05;64.83;100228.56;8270860;28;20226;-83
2021/12/09 11:30:04;;;;;;;30.00;16.15;;;3.90;58.00;;;2.15;64.60;100254.94;8263226;28;20042;-82
2021/12/09 11:34:34;;;;;;;30.88;15.88;;;4.00;58.10;;;2.12;64.91;100249.88;8279915;28;20055;-83
2021/12/09 11:39:16;;;;;;;30.52;15.75;;;4.00;58.00;;;2.17;64.92;100235.97;8270744;28;20046;-83
2021/12/09 11:43:37;;;;;;;32.75;14.93;;;4.00;58.00;;;1.90;64.63;100201.53;8279477;28;20137;-83
2021/12/09 11:48:03;;;;;;;33.05;15.05;;;4.00;58.00;;;2.10;64.52;100213.00;8272208;28;20387;-82
2021/12/09 11:52:25;;;;;;;29.23;14.23;;;4.00;58.00;;;2.19;64.55;100239.34;8267902;28;20046;-83
2021/12/09 12:07:09;;;;;;;25.90;14.18;;;4.10;58.00;;;2.26;64.77;100234.00;8262870;28;20555;-82
2021/12/09 12:11:35;;;;;;;29.63;13.15;;;4.10;58.00;;;2.22;64.95;100228.97;8250101;28;20128;-81
2021/12/09 12:16:00;;;;;;;28.48;13.68;;;4.10;58.00;;;2.29;64.82;100221.03;8242682;28;20044;-83
2021/12/09 12:20:41;;;;;;;24.00;13.40;;;4.10;58.10;;;2.34;64.81;100219.19;8247532;28;20121;-82
2021/12/09 12:25:12;;;;;;;27.05;13.82;;;4.20;58.10;;;2.37;64.63;100217.34;8239866;28;20713;-83
2021/12/09 12:35:07;;;;;;;28.25;13.82;;;4.20;58.10;;;2.43;65.06;100242.94;8256664;28;20520;-82
2021/12/09 12:44:06;;;;;;;28.05;14.13;;;4.30;58.00;;;2.42;64.73;100279.06;8262274;28;20595;-82
2021/12/09 12:53:33;;;;;;;28.55;14.90;;;4.30;57.90;;;2.39;64.87;100248.22;8248024;28;20569;-83
2021/12/09 12:58:06;;;;;;;24.17;13.52;;;4.30;57.90;;;2.42;64.60;100258.44;8247351;28;20050;-83
2021/12/09 13:02:56;;;;;;;29.17;15.88;;;4.20;57.90;;;2.42;64.71;100256.69;8247732;28;20038;-82
2021/12/09 13:07:26;;;;;;;32.38;16.15;;;4.30;57.90;;;2.46;64.54;100267.78;8279857;28;20042;-80
2021/12/09 13:11:57;;;;;;;26.42;15.05;;;4.30;57.90;;;2.49;64.88;100283.16;8255786;28;20050;-80
2021/12/09 13:20:53;;;;;;;26.92;13.85;;;4.30;57.80;;;2.51;64.60;100272.78;8275214;28;20050;-80
2021/12/09 13:25:24;;;;;;;27.63;14.15;;;4.30;57.90;;;2.49;64.95;100288.31;8272770;28;20133;-82
2021/12/09 13:30:20;;;;;;;28.55;14.35;;;4.30;57.90;;;2.46;64.47;100272.94;8272242;28;20045;-83
2021/12/09 13:35:00;;;;;;;23.90;12.57;;;4.30;57.90;;;2.44;64.90;100264.41;8267766;28;20487;-82
2021/12/09 13:39:33;;;;;;;27.27;13.68;;;4.30;57.90;;;2.46;64.81;100266.91;8276929;28;20132;-84
2021/12/09 13:48:45;;;;;;;24.08;13.07;;;4.30;57.90;;;2.52;64.51;100283.06;8277678;28;20389;-82
2021/12/09 13:57:38;;;;;;;29.63;15.57;;;4.30;58.00;;;2.50;64.47;100284.00;8280445;28;20056;-84
2021/12/09 14:02:14;;;;;;;27.48;14.45;;;4.30;58.00;;;2.50;64.81;100282.25;8261677;28;20141;-83
2021/12/09 14:06:36;;;;;;;26.67;14.30;;;4.30;57.90;;;2.39;64.61;100267.09;8249776;28;20153;-85
2021/12/09 14:11:03;;;;;;;31.13;15.38;;;4.30;58.00;;;2.53;64.48;100283.91;8261087;28;20495;-84
2021/12/09 14:15:38;;;;;;;28.05;14.43;;;4.40;58.00;;;2.52;64.87;100272.75;8261844;28;20132;-85
2021/12/09 14:20:03;;;;;;;26.77;13.40;;;4.40;58.00;;;2.57;64.94;100270.88;8234878;28;20141;-84
2021/12/09 14:24:32;;;;;;;32.08;14.88;;;4.40;58.00;;;2.50;64.45;100268.53;8250717;28;20129;-83
2021/12/09 14:28:59;;;;;;;29.92;15.23;;;4.40;58.00;;;2.54;64.83;100276.13;8237094;28;20247;-84
2021/12/09 14:33:21;;;;;;;31.02;15.40;;;4.40;58.00;;;2.53;64.57;100281.31;8264727;28;20042;-84
2021/12/09 14:37:43;;;;;;;27.55;14.25;;;4.40;58.00;;;2.56;64.61;100287.22;8239210;28;20582;-84
2021/12/09 14:42:16;;;;;;;26.90;14.20;;;4.40;58.00;;;2.57;64.53;100286.34;8271002;28;20132;-86
2021/12/09 14:46:41;;;;;;;31.65;15.35;;;4.40;58.00;;;2.53;64.57;100278.75;8253641;28;20214;-85
2021/12/09 14:51:26;;;;;;;26.55;14.20;;;4.40;58.00;;;2.55;64.59;100287.28;8266334;28;20046;-85
2021/12/09 14:55:48;;;;;;;26.48;13.75;;;4.40;58.00;;;2.55;64.84;100282.97;8256058;28;20616;-85
2021/12/09 15:00:10;;;;;;;25.65;13.90;;;4.40;58.00;;;2.58;64.70;100289.75;8252391;28;20068;-86
2021/12/09 15:04:40;;;;;;;29.65;15.13;;;4.40;57.90;;;2.59;64.51;100281.13;8262623;28;20133;-86
2021/12/09 15:09:14;;;;;;;29.77;14.30;;;4.50;58.00;;;2.51;65.04;100271.06;8261883;28;20040;-86
2021/12/09 15:13:49;;;;;;;25.58;13.80;;;4.40;57.90;;;2.54;64.65;100288.16;8246168;28;20043;-86
2021/12/09 15:18:12;;;;;;;31.52;13.73;;;4.40;57.90;;;2.49;64.75;100285.72;8213780;28;20034;-87
2021/12/09 15:22:46;;;;;;;28.10;14.73;;;4.40;57.90;;;2.57;64.88;100306.97;8234414;28;20057;-87
2021/12/09 15:27:08;;;;;;;25.45;13.30;;;4.40;57.90;;;2.58;64.38;100294.91;8240485;28;20042;-87
2021/12/09 15:31:30;;;;;;;29.23;14.43;;;4.40;57.90;;;2.50;64.72;100281.41;8238791;28;20077;-86
2021/12/09 15:36:30;;;;;;;25.52;14.20;;;4.40;57.90;;;2.57;64.76;100283.78;8239586;28;20038;-87
2021/12/09 15:40:52;;;;;;;28.65;13.85;;;4.40;57.90;;;2.49;64.61;100256.53;8231060;28;20058;-88
2021/12/09 15:45:20;;;;;;;30.35;15.02;;;4.40;57.90;;;2.51;64.69;100265.94;8238485;28;20072;-87
2021/12/09 15:49:51;;;;;;;29.42;15.15;;;4.40;57.90;;;2.49;64.40;100259.97;8237079;28;20055;-88
2021/12/09 15:54:16;;;;;;;29.83;14.52;;;4.40;57.90;;;2.53;64.54;100268.44;8245815;28;20514;-87
2021/12/09 15:58:39;;;;;;;28.95;13.88;;;4.40;57.90;;;2.47;64.53;100256.56;8228472;28;20045;-88
2021/12/09 16:03:04;;;;;;;29.25;14.48;;;4.30;57.80;;;2.47;64.47;100264.31;8240119;28;20050;-88
2021/12/09 16:07:26;;;;;;;27.00;12.85;;;4.40;57.80;;;2.44;64.76;100248.94;8257503;28;20050;-89
2021/12/09 16:11:42;;;;;;;30.70;14.93;;;4.30;57.80;;;2.40;64.89;100245.63;8245413;23;20049;-88
2021/12/09 16:16:11;;;;;;;30.30;13.43;;;4.30;58.10;;;2.42;64.69;100253.28;8255689;28;20414;-89
2021/12/09 16:20:36;;;;;;;28.55;13.15;;;4.30;57.80;;;2.42;64.73;100263.59;8262439;28;20042;-85
2021/12/09 16:25:11;;;;;;;30.75;14.52;;;4.30;57.80;;;2.44;64.70;100277.28;8262815;28;20061;-85
2021/12/09 16:29:33;;;;;;;31.60;14.98;;;4.30;57.80;;;2.44;64.75;100279.88;8276964;28;20053;-83
2021/12/09 16:33:55;;;;;;;30.08;15.25;;;4.30;57.90;;;2.45;64.55;100276.38;8273262;28;20052;-82
2021/12/09 16:38:17;;;;;;;28.95;15.43;;;4.20;57.80;;;2.38;64.63;100285.19;8280719;28;20103;-82
2021/12/09 16:42:41;;;;;;;40.65;19.58;;;4.20;57.80;;;2.44;64.94;100290.16;8276988;28;20056;-82
2021/12/09 16:47:04;;;;;;;42.10;19.40;;;4.30;57.90;;;2.41;64.85;100269.66;8272861;28;20047;-82
2021/12/09 16:51:26;;;;;;;33.33;15.98;;;4.20;57.90;;;2.41;64.55;100291.09;8283981;28;20361;-82
2021/12/09 16:55:58;;;;;;;34.63;15.55;;;4.20;57.90;;;2.40;64.88;100286.84;8265187;28;20495;-81
2021/12/09 17:00:30;;;;;;;29.05;14.95;;;4.20;57.90;;;2.40;64.60;100278.25;8261150;28;20050;-81
2021/12/09 17:04:54;;;;;;;29.42;14.30;;;4.20;58.00;;;2.44;64.50;100287.59;8271760;28;20050;-80
2021/12/09 17:09:16;;;;;;;32.25;15.82;;;4.20;58.00;;;2.37;64.17;100289.47;8264117;28;20038;-81
2021/12/09 17:13:39;;;;;;;32.90;16.17;;;4.20;58.10;;;2.39;64.75;100274.00;8252525;28;20038;-81
2021/12/09 17:18:02;;;;;;;34.20;15.23;;;4.20;58.10;;;2.43;64.70;100294.50;8261880;28;20044;-81
2021/12/09 17:22:24;;;;;;;29.67;14.57;;;4.30;58.00;;;2.48;64.87;100293.50;8265987;28;20049;-81
2021/12/09 17:26:48;;;;;;;26.48;13.65;;;4.20;57.90;;;2.44;64.52;100279.88;8258872;28;20045;-81
2021/12/09 17:31:12;;;;;;;35.72;16.25;;;4.30;57.90;;;2.46;64.92;100272.94;8254091;28;20046;-81
2021/12/09 17:35:33;;;;;;;30.60;14.70;;;4.20;57.90;;;2.46;64.53;100287.53;8266952;28;20045;-81
2021/12/09 17:39:55;;;;;;;28.05;14.05;;;4.30;58.00;;;2.39;64.69;100269.69;8274909;28;20044;-80
2021/12/09 17:44:20;;;;;;;32.28;14.63;;;4.20;57.90;;;2.40;64.81;100265.38;8283147;28;20064;-81
2021/12/09 17:48:42;;;;;;;25.35;13.15;;;4.20;57.90;;;2.40;64.84;100271.38;8249913;28;20057;-81
2021/12/09 17:53:05;;;;;;;26.27;13.65;;;4.30;58.00;;;2.44;64.95;100285.03;8270565;28;20676;-82
2021/12/09 17:57:28;;;;;;;28.58;14.52;;;4.20;58.00;;;2.44;64.55;100270.41;8284161;28;20056;-81
2021/12/09 18:01:49;;;;;;;26.90;13.70;;;4.30;58.00;;;2.46;64.82;100264.34;8279428;28;20532;-82
2021/12/09 18:06:11;;;;;;;33.25;14.38;;;4.20;57.90;;;2.33;64.69;100245.84;8285739;28;20046;-81
2021/12/09 18:10:37;;;;;;;31.60;14.35;;;4.30;57.90;;;2.39;64.67;100251.66;8267234;28;20053;-82
2021/12/09 18:15:00;;;;;;;;;;;4.30;57.90;;;2.32;64.91;100252.72;8270015;28;20052;-83
2021/12/09 18:19:23;;;;;;;24.83;11.52;;;4.30;58.00;;;2.37;64.76;100253.41;8267946;28;19924;-83
2021/12/09 18:23:45;;;;;;;27.67;13.05;;;4.30;57.90;;;2.36;64.77;100267.19;8298403;28;20403;-83
2021/12/09 18:28:07;;;;;;;29.05;13.45;;;4.20;57.90;;;2.40;64.68;100262.78;8278583;28;20049;-83
2021/12/09 18:32:28;;;;;;;26.23;13.52;;;4.20;57.90;;;2.38;64.78;100254.28;8291839;28;20047;-83
2021/12/09 18:36:52;;;;;;;31.85;15.27;;;4.20;57.90;;;2.36;64.76;100262.03;8262550;28;20046;-82
2021/12/09 18:41:14;;;;;;;26.63;14.15;;;4.20;57.90;;;2.41;64.79;100267.06;8271230;28;20137;-83
2021/12/09 18:45:37;;;;;;;32.83;15.13;;;4.20;58.00;;;2.39;65.01;100261.94;8255963;28;20046;-83
2021/12/09 18:49:59;;;;;;;31.95;15.30;;;4.20;58.00;;;2.44;64.75;100269.56;8263898;28;20043;-83
2021/12/09 18:54:21;;;;;;;32.75;14.25;;;4.30;58.00;;;2.41;64.60;100270.50;8266049;28;20529;-83
2021/12/09 18:58:44;;;;;;;35.88;14.90;;;4.30;58.00;;;2.38;64.82;100256.88;8296223;28;20570;-82
2021/12/09 19:03:08;;;;;;;31.83;15.48;;;4.30;57.90;;;2.40;64.91;100265.38;8273870;28;20046;-82